Time;durP1;ratioP1;P1;durP2;ratioP2;P2;SDS_P1;SDS_P2;PMS_P1;PMS_P2;Temp;Humidity;BMP_temperature;BMP_pressure;BME280_temperature;BME280_humidity;BME280_pressure;Samples;Min_cycle;Max_cycle;Signal;HPM_P1;HPM_P2
2023/06/20 00:00:12;;;;;;;5.72;2.50;;;;;;;15.43;93.62;99905.19;6178848;23;20008;-90
2023/06/20 00:02:38;;;;;;;4.50;2.28;;;;;;;15.43;93.90;99898.19;6179110;22;20001;-89
2023/06/20 00:05:04;;;;;;;2.80;2.08;;;;;;;15.44;94.13;99896.44;6179856;23;20429;-89
2023/06/20 00:07:30;;;;;;;7.22;2.88;;;;;;;15.40;94.30;99891.47;6180808;23;20001;-89
2023/06/20 00:09:55;;;;;;;8.02;2.53;;;;;;;15.38;95.14;99884.75;6181080;22;20050;-89
2023/06/20 00:12:21;;;;;;;4.72;2.60;;;;;;;15.39;95.41;99884.66;6180224;23;20006;-88
2023/06/20 00:14:46;;;;;;;5.20;2.15;;;;;;;15.44;94.91;99886.84;6180761;23;20005;-89
2023/06/20 00:17:13;;;;;;;4.57;2.30;;;;;;;15.47;94.48;99885.75;6180421;23;20301;-91
2023/06/20 00:19:40;;;;;;;9.70;2.40;;;;;;;15.39;95.22;99873.44;6284664;22;20012;-89
2023/06/20 00:22:05;;;;;;;8.48;2.83;;;;;;;15.36;95.61;99878.88;6180676;22;20535;-92
2023/06/20 00:24:34;;;;;;;5.18;2.20;;;;;;;15.37;95.88;99870.13;6180559;23;20011;-90
2023/06/20 00:27:02;;;;;;;10.40;3.33;;;;;;;15.30;97.34;99875.03;6180851;22;20009;-90
2023/06/20 00:29:28;;;;;;;4.00;2.22;;;;;;;15.30;97.96;99854.22;6180231;22;20084;-89
2023/06/20 00:31:54;;;;;;;4.05;2.10;;;;;;;15.37;97.66;99847.53;6180244;22;20043;-88
2023/06/20 00:34:19;;;;;;;3.53;2.33;;;;;;;15.33;97.50;99843.56;6180414;22;20327;-90
2023/06/20 00:36:45;;;;;;;5.40;2.38;;;;;;;15.34;98.46;99829.63;6180564;23;20005;-91
2023/06/20 00:39:10;;;;;;;6.68;2.63;;;;;;;15.34;99.07;99832.22;6180513;22;20332;-89
2023/06/20 00:41:36;;;;;;;6.28;3.00;;;;;;;15.30;99.26;99824.81;6180331;22;20033;-90
2023/06/20 00:44:03;;;;;;;8.10;3.50;;;;;;;15.25;100.00;99835.59;6180708;22;19997;-89
2023/06/20 00:46:36;;;;;;;9.30;3.03;;;;;;;15.26;100.00;99832.03;6180782;22;20007;-90
2023/06/20 00:49:07;;;;;;;6.10;2.80;;;;;;;15.21;100.00;99821.22;6180340;22;20005;-90
2023/06/20 00:51:34;;;;;;;9.30;3.22;;;;;;;15.27;100.00;99822.50;6180214;22;20046;-89
2023/06/20 00:54:01;;;;;;;6.30;3.13;;;;;;;15.27;100.00;99819.88;6180366;22;20005;-89
2023/06/20 00:56:27;;;;;;;4.80;3.03;;;;;;;15.24;100.00;99813.19;6180308;22;20005;-89
2023/06/20 00:58:52;;;;;;;5.80;2.95;;;;;;;15.32;100.00;99815.91;6180103;23;20035;-90
2023/06/20 01:01:18;;;;;;;8.13;3.38;;;;;;;15.49;100.00;99813.63;6179727;22;20328;-90
2023/06/20 01:03:48;;;;;;;8.38;3.80;;;;;;;15.54;100.00;99808.84;6180133;22;20008;-91
2023/06/20 01:06:32;;;;;;;6.53;3.88;;;;;;;15.57;100.00;99801.56;6179778;22;20005;-88
2023/06/20 01:09:16;;;;;;;10.43;3.13;;;;;;;15.50;100.00;99799.66;6179960;22;20084;-90
2023/06/20 01:12:00;;;;;;;10.40;3.67;;;;;;;15.53;100.00;99796.78;6180288;22;20324;-88
2023/06/20 01:14:50;;;;;;;12.77;4.00;;;;;;;15.44;100.00;99779.41;6284961;22;20297;-89
2023/06/20 01:17:31;;;;;;;14.98;3.80;;;;;;;15.65;100.00;99776.66;6180182;23;20480;-90
2023/06/20 01:20:04;;;;;;;6.93;3.50;;;;;;;15.68;100.00;99787.63;6178249;22;20001;-90
2023/06/20 01:22:44;;;;;;;7.63;3.55;;;;;;;15.59;100.00;99784.06;6179905;22;20005;-90
2023/06/20 01:25:17;;;;;;;7.72;3.20;;;;;;;15.56;100.00;99791.34;6180534;22;20005;-90
2023/06/20 01:27:54;;;;;;;6.07;3.33;;;;;;;15.59;100.00;99786.66;6180238;22;20013;-88
2023/06/20 01:30:24;;;;;;;9.45;3.53;;;;;;;15.74;100.00;99784.50;6179447;23;20784;-91
2023/06/20 01:32:53;;;;;;;10.25;4.18;;;;;;;15.75;100.00;99780.97;6180014;22;20009;-89
2023/06/20 01:35:23;;;;;;;6.35;3.35;;;;;;;15.70;100.00;99783.13;6180188;23;20009;-88
2023/06/20 01:37:54;;;;;;;7.20;3.73;;;;;;;15.66;100.00;99786.13;6180336;22;20009;-88
2023/06/20 01:40:22;;;;;;;5.15;3.20;;;;;;;15.61;100.00;99783.94;6180224;22;20001;-88
2023/06/20 01:42:48;;;;;;;10.95;4.28;;;;;;;15.69;100.00;99776.25;6180363;22;20012;-89
2023/06/20 01:45:16;;;;;;;9.48;3.60;;;;;;;15.72;100.00;99778.59;6180249;22;20005;-88
2023/06/20 01:47:42;;;;;;;7.95;3.13;;;;;;;15.79;100.00;99776.28;6180333;22;20047;-90
2023/06/20 01:50:09;;;;;;;7.55;3.03;;;;;;;15.90;100.00;99783.97;6179869;22;20081;-88
2023/06/20 01:52:36;;;;;;;5.53;3.17;;;;;;;15.88;100.00;99782.47;6180319;22;20036;-90
2023/06/20 01:55:04;;;;;;;7.90;3.10;;;;;;;15.81;100.00;99785.59;6180512;22;20005;-88
2023/06/20 01:57:32;;;;;;;7.50;3.05;;;;;;;15.68;100.00;99776.38;6180203;22;20088;-90
2023/06/20 02:00:00;;;;;;;5.32;3.13;;;;;;;15.68;100.00;99774.63;6179608;22;20005;-90
2023/06/20 02:02:29;;;;;;;5.75;2.70;;;;;;;15.75;100.00;99777.50;6179680;22;20012;-90
2023/06/20 02:04:58;;;;;;;5.35;3.03;;;;;;;15.66;100.00;99781.75;6179712;23;20001;-90
2023/06/20 02:07:26;;;;;;;4.20;2.47;;;;;;;15.66;100.00;99789.53;6180639;22;20031;-89
2023/06/20 02:09:53;;;;;;;7.25;2.53;;;;;;;15.63;100.00;99795.84;6179980;22;20029;-90
2023/06/20 02:12:19;;;;;;;4.65;2.80;;;;;;;15.61;100.00;99794.34;6283870;22;20016;-90
2023/06/20 02:14:47;;;;;;;5.22;2.58;;;;;;;15.62;100.00;99793.38;6180047;22;19997;-89
2023/06/20 02:17:14;;;;;;;9.68;2.85;;;;;;;15.60;100.00;99792.69;6179804;23;20008;-90
2023/06/20 02:19:40;;;;;;;8.60;3.47;;;;;;;15.54;100.00;99790.63;6180080;22;20387;-90
2023/06/20 02:22:07;;;;;;;6.93;2.53;;;;;;;15.58;100.00;99786.78;6180074;23;20005;-90
2023/06/20 02:24:34;;;;;;;12.40;3.33;;;;;;;15.57;100.00;99785.16;6180094;22;20033;-90
2023/06/20 02:27:03;;;;;;;5.25;2.28;;;;;;;15.58;100.00;99789.38;6179554;22;20173;-90
2023/06/20 02:29:34;;;;;;;7.18;2.67;;;;;;;15.83;100.00;99796.69;6179742;22;20012;-89
2023/06/20 02:32:02;;;;;;;8.18;2.97;;;;;;;15.88;100.00;99795.47;6179546;22;20060;-90
2023/06/20 02:34:30;;;;;;;4.80;2.03;;;;;;;15.66;100.00;99797.34;6179816;22;20001;-90
2023/06/20 02:36:58;;;;;;;9.23;2.60;;;;;;;15.48;100.00;99804.97;6179439;22;20009;-91
2023/06/20 02:39:24;;;;;;;8.52;3.53;;;;;;;15.42;100.00;99800.34;6179885;22;20076;-90
2023/06/20 02:41:49;;;;;;;10.98;3.65;;;;;;;15.70;100.00;99792.72;6180152;22;20434;-91
2023/06/20 02:44:14;;;;;;;9.45;4.10;;;;;;;15.70;100.00;99790.94;6180077;22;20001;-88
2023/06/20 02:47:01;;;;;;;8.02;4.22;;;;;;;15.59;100.00;99781.47;6179768;23;20389;-89
2023/06/20 02:49:26;;;;;;;7.95;3.63;;;;;;;15.54;100.00;99775.03;6179795;23;20387;-89
2023/06/20 02:52:24;;;;;;;15.52;5.32;;;;;;;15.46;100.00;99765.31;6179435;23;20054;-90
2023/06/20 02:55:27;;;;;;;8.75;4.28;;;;;;;15.37;100.00;99751.34;6229670;22;20012;-90
2023/06/20 02:57:56;;;;;;;9.57;4.65;;;;;;;15.28;100.00;99728.75;6179846;23;20012;-90
2023/06/20 03:00:23;;;;;;;10.02;4.45;;;;;;;15.23;100.00;99723.13;6179123;22;20076;-90
2023/06/20 03:03:16;;;;;;;13.45;5.00;;;;;;;15.44;100.00;99709.19;6179954;22;20001;-90
2023/06/20 03:05:42;;;;;;;12.77;5.25;;;;;;;15.37;100.00;99701.94;6179949;22;20321;-90
2023/06/20 03:08:09;;;;;;;9.75;5.60;;;;;;;15.37;100.00;99703.72;6283302;22;20072;-90
2023/06/20 03:10:35;;;;;;;12.15;4.72;;;;;;;15.34;100.00;99710.00;6179701;22;20005;-90
2023/06/20 03:13:05;;;;;;;12.88;6.05;;;;;;;15.56;100.00;99714.13;6179977;22;20080;-90
2023/06/20 03:15:30;;;;;;;9.50;4.78;;;;;;;15.45;100.00;99718.63;6179820;22;20009;-90
2023/06/20 03:18:00;;;;;;;9.52;5.07;;;;;;;15.44;100.00;99717.00;6179898;22;20007;-90
2023/06/20 03:20:28;;;;;;;13.85;5.30;;;;;;;15.39;100.00;99717.41;6179358;23;20001;-90
2023/06/20 03:22:54;;;;;;;15.77;5.38;;;;;;;15.55;100.00;99698.63;6180603;22;20371;-90
2023/06/20 03:25:19;;;;;;;8.98;4.65;;;;;;;15.39;100.00;99691.41;6179820;23;20001;-90
2023/06/20 03:27:45;;;;;;;6.95;4.55;;;;;;;15.34;100.00;99689.22;6179672;22;20028;-90
2023/06/20 03:30:11;;;;;;;11.70;4.35;;;;;;;15.31;100.00;99681.66;6179031;22;20005;-90
2023/06/20 03:32:36;;;;;;;9.70;3.35;;;;;;;15.33;100.00;99692.75;6179586;22;20004;-90
2023/06/20 03:35:03;;;;;;;9.25;3.17;;;;;;;15.37;100.00;99678.53;6179680;22;20005;-90
2023/06/20 03:37:28;;;;;;;7.32;3.00;;;;;;;15.29;100.00;99683.59;6179704;22;20043;-90
2023/06/20 03:39:53;;;;;;;6.47;3.83;;;;;;;15.25;100.00;99692.63;6179499;22;20005;-90
2023/06/20 03:42:19;;;;;;;11.32;3.22;;;;;;;15.19;100.00;99698.34;6179932;22;20435;-90
2023/06/20 03:44:44;;;;;;;7.25;3.50;;;;;;;15.20;100.00;99703.44;6179572;23;20424;-90
2023/06/20 03:47:09;;;;;;;10.05;4.28;;;;;;;15.07;100.00;99710.69;6180015;22;20115;-90
2023/06/20 03:49:35;;;;;;;12.88;4.85;;;;;;;14.96;100.00;99710.78;6179193;23;20001;-90
2023/06/20 03:52:01;;;;;;;9.32;4.00;;;;;;;14.84;100.00;99699.69;6179421;23;20008;-90
2023/06/20 03:54:26;;;;;;;8.85;3.88;;;;;;;14.76;100.00;99704.72;6283471;22;20028;-90
2023/06/20 03:56:52;;;;;;;12.63;4.03;;;;;;;14.83;100.00;99685.06;6179412;22;20436;-90
2023/06/20 03:59:18;;;;;;;6.82;3.80;;;;;;;14.77;100.00;99680.38;6179026;23;20005;-90
2023/06/20 04:01:43;;;;;;;10.27;3.47;;;;;;;14.78;100.00;99661.25;6178903;23;20447;-91
2023/06/20 04:04:09;;;;;;;10.77;3.08;;;;;;;14.95;100.00;99664.97;6179494;22;20011;-90
2023/06/20 04:06:35;;;;;;;9.50;3.83;;;;;;;14.91;100.00;99668.78;6179283;22;20084;-89
2023/06/20 04:09:00;;;;;;;8.40;3.78;;;;;;;14.91;100.00;99674.00;6178736;23;20075;-90
2023/06/20 04:11:26;;;;;;;12.77;4.03;;;;;;;14.79;100.00;99699.25;6283425;22;20005;-90
2023/06/20 04:13:51;;;;;;;9.13;3.55;;;;;;;14.75;100.00;99713.47;6179634;22;20424;-90
2023/06/20 04:16:17;;;;;;;7.25;3.92;;;;;;;14.81;100.00;99715.53;6179101;23;20331;-89
2023/06/20 04:18:42;;;;;;;8.23;3.60;;;;;;;15.00;100.00;99686.19;6179321;23;20033;-89
2023/06/20 04:21:07;;;;;;;16.00;4.30;;;;;;;15.08;100.00;99699.31;6179275;22;20002;-89
2023/06/20 04:23:33;;;;;;;12.80;4.45;;;;;;;15.05;100.00;99694.38;6179305;22;20005;-89
2023/06/20 04:25:58;;;;;;;11.70;3.80;;;;;;;15.09;100.00;99697.53;6179871;22;20383;-90
2023/06/20 04:28:24;;;;;;;16.38;4.53;;;;;;;15.02;100.00;99691.22;6179395;22;20331;-90
2023/06/20 04:30:51;;;;;;;7.47;4.13;;;;;;;14.99;100.00;99689.72;6177100;22;20039;-90
2023/06/20 04:33:16;;;;;;;8.52;4.00;;;;;;;14.89;100.00;99683.69;6178824;22;20051;-89
2023/06/20 04:35:42;;;;;;;9.85;4.85;;;;;;;14.97;100.00;99689.03;6179513;23;20358;-89
2023/06/20 04:38:07;;;;;;;25.13;6.15;;;;;;;14.99;100.00;99676.72;6179499;22;20001;-89
2023/06/20 04:40:32;;;;;;;9.45;4.20;;;;;;;15.01;100.00;99661.00;6179185;23;20008;-89
2023/06/20 04:42:58;;;;;;;9.35;4.22;;;;;;;14.89;100.00;99657.72;6179247;22;20001;-89
2023/06/20 04:45:23;;;;;;;18.80;3.85;;;;;;;14.87;100.00;99663.03;6178890;23;19997;-90
2023/06/20 04:47:50;;;;;;;10.23;3.60;;;;;;;14.72;100.00;99669.56;6283108;22;20080;-90
2023/06/20 04:50:16;;;;;;;9.73;3.38;;;;;;;14.72;100.00;99677.38;6179659;22;20023;-90
2023/06/20 04:52:41;;;;;;;7.88;3.72;;;;;;;14.66;100.00;99672.72;6180561;22;20005;-89
2023/06/20 04:55:07;;;;;;;5.53;3.20;;;;;;;14.63;100.00;99684.19;6284627;22;20009;-89
2023/06/20 04:57:33;;;;;;;4.90;3.00;;;;;;;14.49;100.00;99693.13;6180186;22;20080;-89
2023/06/20 04:59:59;;;;;;;7.55;3.20;;;;;;;14.61;100.00;99696.50;6178615;22;20005;-89
2023/06/20 05:02:25;;;;;;;5.47;3.15;;;;;;;14.60;100.00;99712.19;6179408;22;20410;-89
2023/06/20 05:04:51;;;;;;;5.68;2.88;;;;;;;14.48;100.00;99707.06;6283261;22;20009;-89
2023/06/20 05:07:17;;;;;;;5.43;3.25;;;;;;;14.61;100.00;99678.31;6282956;22;20305;-89
2023/06/20 05:09:42;;;;;;;7.55;3.33;;;;;;;14.65;100.00;99648.50;6178955;23;20390;-89
2023/06/20 05:12:08;;;;;;;10.10;3.53;;;;;;;14.53;100.00;99647.81;6179301;22;20009;-90
2023/06/20 05:14:33;;;;;;;14.98;3.60;;;;;;;14.64;100.00;99627.88;6179288;23;20001;-89
2023/06/20 05:16:58;;;;;;;14.05;4.18;;;;;;;14.55;100.00;99604.34;6179029;22;20009;-89
2023/06/20 05:19:24;;;;;;;8.50;3.45;;;;;;;14.59;100.00;99602.31;6178968;23;20009;-89
2023/06/20 05:21:49;;;;;;;14.70;4.18;;;;;;;14.48;100.00;99603.19;6179336;22;20051;-88
2023/06/20 05:24:15;;;;;;;9.65;3.00;;;;;;;14.41;100.00;99617.69;6179046;22;20024;-89
2023/06/20 05:26:41;;;;;;;8.25;3.00;;;;;;;14.33;100.00;99625.31;6178740;23;20009;-89
2023/06/20 05:29:06;;;;;;;10.45;3.08;;;;;;;14.18;100.00;99626.63;6282914;22;20063;-88
2023/06/20 05:31:32;;;;;;;7.60;3.00;;;;;;;14.29;100.00;99629.13;6178784;23;20001;-89
2023/06/20 05:33:57;;;;;;;9.57;2.70;;;;;;;14.37;100.00;99631.06;6179007;23;20001;-90
2023/06/20 05:36:23;;;;;;;3.97;2.25;;;;;;;14.38;100.00;99630.09;6283111;22;20011;-90
2023/06/20 05:38:48;;;;;;;3.90;2.40;;;;;;;14.40;100.00;99631.59;6178883;22;20370;-90
2023/06/20 05:41:17;;;;;;;4.70;2.15;;;;;;;14.35;100.00;99626.00;6283400;22;20001;-90
2023/06/20 05:43:42;;;;;;;4.65;2.20;;;;;;;14.30;100.00;99626.38;6179710;23;20066;-90
2023/06/20 05:46:08;;;;;;;6.95;2.13;;;;;;;14.42;100.00;99619.31;6180568;22;20009;-91
2023/06/20 05:48:34;;;;;;;3.75;2.22;;;;;;;14.36;100.00;99612.03;6178900;22;20035;-90
2023/06/20 05:51:00;;;;;;;5.32;1.80;;;;;;;14.53;100.00;99614.06;6179205;23;20013;-91
2023/06/20 05:53:29;;;;;;;3.22;1.80;;;;;;;14.33;100.00;99601.94;6178744;22;20013;-91
2023/06/20 05:55:54;;;;;;;5.75;2.75;;;;;;;14.24;100.00;99600.97;6178986;22;20058;-90
2023/06/20 05:58:19;;;;;;;4.85;2.13;;;;;;;14.39;100.00;99588.44;6282328;22;20004;-90
2023/06/20 06:00:45;;;;;;;7.60;2.10;;;;;;;14.47;100.00;99575.59;6179836;22;20092;-91
2023/06/20 06:03:12;;;;;;;5.90;1.90;;;;;;;14.47;100.00;99575.59;6179067;22;20343;-90
2023/06/20 06:05:39;;;;;;;8.02;2.35;;;;;;;14.34;100.00;99570.66;6179786;22;20404;-90
2023/06/20 06:08:05;;;;;;;5.63;2.05;;;;;;;14.34;100.00;99581.06;6179896;22;20034;-90
2023/06/20 06:10:30;;;;;;;4.28;2.10;;;;;;;14.48;100.00;99598.00;6180494;22;20315;-90
2023/06/20 06:12:55;;;;;;;6.07;2.53;;;;;;;14.35;100.00;99593.06;6180449;22;20009;-90
2023/06/20 06:15:21;;;;;;;6.28;2.10;;;;;;;14.54;100.00;99581.94;6179657;23;20001;-91
2023/06/20 06:17:46;;;;;;;6.95;1.95;;;;;;;14.63;100.00;99579.47;6179808;23;20516;-90
2023/06/20 06:20:14;;;;;;;15.07;3.13;;;;;;;14.67;100.00;99586.84;6179795;23;20001;-90
2023/06/20 06:22:39;;;;;;;3.65;2.08;;;;;;;14.64;100.00;99586.31;6284068;22;20005;-90
2023/06/20 06:25:08;;;;;;;4.03;2.30;;;;;;;14.60;100.00;99601.34;6284015;22;20012;-90
2023/06/20 06:27:34;;;;;;;10.25;2.22;;;;;;;14.65;100.00;99598.34;6180677;22;20005;-89
2023/06/20 06:30:00;;;;;;;6.47;2.25;;;;;;;14.63;100.00;99598.50;6283599;22;20016;-90
2023/06/20 06:32:27;;;;;;;4.15;2.17;;;;;;;14.71;100.00;99596.03;6283643;22;20012;-89
2023/06/20 06:34:53;;;;;;;4.40;2.58;;;;;;;14.65;100.00;99593.16;6180220;23;20431;-89
2023/06/20 06:37:20;;;;;;;4.47;2.70;;;;;;;14.60;100.00;99590.13;6180212;23;20008;-89
2023/06/20 06:39:45;;;;;;;3.67;2.30;;;;;;;14.74;100.00;99584.56;6180118;22;20364;-89
2023/06/20 06:42:11;;;;;;;2.45;2.03;;;;;;;14.74;100.00;99581.94;6180045;23;20040;-90
2023/06/20 06:44:37;;;;;;;7.05;2.40;;;;;;;14.84;100.00;99581.97;6179613;23;20408;-89
2023/06/20 06:47:02;;;;;;;9.30;2.65;;;;;;;14.84;100.00;99582.78;6179873;22;20331;-90
2023/06/20 06:49:28;;;;;;;3.22;2.20;;;;;;;14.85;100.00;99579.22;6178300;22;20475;-91
2023/06/20 06:51:54;;;;;;;3.42;2.50;;;;;;;14.80;100.00;99576.19;6178993;23;20005;-90
2023/06/20 06:54:20;;;;;;;5.32;3.08;;;;;;;14.84;100.00;99577.56;6179804;23;20061;-90
2023/06/20 06:56:45;;;;;;;4.93;2.63;;;;;;;14.92;100.00;99575.13;6180151;23;20131;-90
2023/06/20 06:59:11;;;;;;;4.93;2.42;;;;;;;14.95;100.00;99582.66;6179159;22;20411;-89
2023/06/20 07:01:36;;;;;;;3.90;2.72;;;;;;;15.02;100.00;99582.06;6179858;22;20005;-89
2023/06/20 07:04:01;;;;;;;5.50;2.30;;;;;;;15.06;100.00;99586.06;6180556;22;20036;-89
2023/06/20 07:06:30;;;;;;;3.33;2.30;;;;;;;15.08;100.00;99578.94;6179955;23;20056;-93
2023/06/20 07:08:55;;;;;;;4.82;2.30;;;;;;;15.11;100.00;99578.66;6282938;22;20016;-91
2023/06/20 07:11:22;;;;;;;4.75;3.00;;;;;;;15.01;100.00;99583.06;6179146;22;20001;-91
2023/06/20 07:13:47;;;;;;;3.70;2.53;;;;;;;15.02;100.00;99587.28;6177991;22;20380;-92
2023/06/20 07:16:13;;;;;;;6.55;2.50;;;;;;;15.01;100.00;99590.84;6179587;22;20040;-91
2023/06/20 07:18:38;;;;;;;5.07;2.17;;;;;;;15.02;100.00;99597.69;6178368;22;20439;-91
2023/06/20 07:21:04;;;;;;;6.00;2.20;;;;;;;14.93;100.00;99601.94;6282910;22;20063;-92
2023/06/20 07:23:29;;;;;;;8.07;2.60;;;;;;;14.99;100.00;99602.19;6281395;22;20005;-92
2023/06/20 07:25:55;;;;;;;2.80;2.28;;;;;;;15.04;100.00;99595.75;6179820;22;20008;-92
2023/06/20 07:28:21;;;;;;;3.92;2.08;;;;;;;15.09;100.00;99590.97;6286268;22;20443;-93
2023/06/20 07:30:46;;;;;;;3.88;2.22;;;;;;;15.09;100.00;99590.97;6178546;23;20027;-92
2023/06/20 07:33:11;;;;;;;4.22;2.17;;;;;;;15.09;100.00;99589.19;6179282;22;20420;-91
2023/06/20 07:35:37;;;;;;;5.97;2.40;;;;;;;15.14;100.00;99589.63;6282583;22;19997;-91
2023/06/20 07:38:02;;;;;;;3.80;1.85;;;;;;;15.25;100.00;99596.44;6176508;22;20001;-92
2023/06/20 07:40:28;;;;;;;5.47;1.90;;;;;;;15.27;100.00;99585.91;6276674;22;20450;-92
2023/06/20 07:42:53;;;;;;;4.00;2.53;;;;;;;15.26;100.00;99586.84;6173594;23;20005;-92
2023/06/20 07:45:19;;;;;;;3.78;2.35;;;;;;;15.30;100.00;99581.25;6179354;22;19997;-92
2023/06/20 07:47:44;;;;;;;5.35;2.60;;;;;;;15.35;100.00;99586.03;6282988;22;20252;-92
2023/06/20 07:50:10;;;;;;;5.82;2.30;;;;;;;15.37;100.00;99584.91;6283198;22;20076;-91
2023/06/20 07:52:36;;;;;;;4.95;2.35;;;;;;;15.30;100.00;99581.25;6177842;23;20009;-91
2023/06/20 07:55:03;;;;;;;3.85;1.95;;;;;;;15.34;100.00;99584.41;6282384;22;20489;-94
2023/06/20 07:57:28;;;;;;;4.28;2.20;;;;;;;15.37;100.00;99590.13;6282679;22;20054;-91
2023/06/20 07:59:53;;;;;;;4.90;2.50;;;;;;;15.36;100.00;99593.69;6179720;22;20009;-91
2023/06/20 08:02:19;;;;;;;3.58;2.20;;;;;;;15.38;100.00;99586.53;6283282;22;20412;-93
2023/06/20 08:04:44;;;;;;;4.97;2.58;;;;;;;15.55;100.00;99586.78;6179198;23;20076;-92
2023/06/20 08:07:09;;;;;;;5.22;2.95;;;;;;;15.61;100.00;99592.25;6179064;22;20012;-92
2023/06/20 08:09:35;;;;;;;5.20;2.40;;;;;;;15.55;100.00;99597.19;6283039;22;20012;-92
2023/06/20 08:12:00;;;;;;;6.28;3.10;;;;;;;15.58;100.00;99594.31;6178222;22;20043;-92
2023/06/20 08:14:26;;;;;;;4.22;1.90;;;;;;;15.41;100.00;99596.69;6179944;22;20021;-93
2023/06/20 08:16:51;;;;;;;4.07;2.00;;;;;;;15.52;100.00;99594.88;6178905;22;20350;-92
2023/06/20 08:19:16;;;;;;;7.40;2.13;;;;;;;15.69;100.00;99588.94;6282564;22;20005;-92
2023/06/20 08:21:42;;;;;;;5.40;2.83;;;;;;;15.71;100.00;99592.25;6179430;23;20001;-92
2023/06/20 08:24:07;;;;;;;4.75;2.50;;;;;;;15.70;100.00;99588.00;6179368;23;20005;-92
2023/06/20 08:26:32;;;;;;;4.70;2.55;;;;;;;15.82;100.00;99583.44;6180067;23;20001;-92
2023/06/20 08:28:58;;;;;;;3.80;2.30;;;;;;;16.01;100.00;99577.34;6180346;23;20103;-93
2023/06/20 08:31:36;;;;;;;5.38;3.13;;;;;;;16.24;100.00;99577.78;6180593;22;20328;-93
2023/06/20 08:34:01;;;;;;;6.22;2.40;;;;;;;16.08;100.00;99578.41;6180331;23;20001;-92
2023/06/20 08:36:27;;;;;;;4.35;2.30;;;;;;;16.38;100.00;99579.06;6180754;22;20327;-92
2023/06/20 08:38:52;;;;;;;7.88;2.97;;;;;;;16.40;100.00;99577.97;6180283;23;20001;-92
2023/06/20 08:41:17;;;;;;;3.67;2.55;;;;;;;16.47;100.00;99578.19;6180616;23;20328;-91
2023/06/20 08:43:43;;;;;;;4.45;2.25;;;;;;;16.23;100.00;99582.16;6180931;22;20009;-92
2023/06/20 08:46:08;;;;;;;3.47;2.38;;;;;;;16.36;100.00;99583.59;6180641;23;20001;-92
2023/06/20 08:48:34;;;;;;;5.60;2.47;;;;;;;16.51;100.00;99583.91;6180583;22;20073;-92
2023/06/20 08:50:59;;;;;;;5.45;2.72;;;;;;;16.51;100.00;99583.91;6180552;23;20005;-92
2023/06/20 08:53:26;;;;;;;2.65;2.03;;;;;;;16.51;100.00;99579.53;6180877;22;20439;-91
2023/06/20 08:55:52;;;;;;;5.57;1.92;;;;;;;16.42;100.00;99575.22;6180749;22;20432;-93
2023/06/20 08:58:18;;;;;;;5.05;2.22;;;;;;;16.59;100.00;99587.44;6285111;22;20028;-91
2023/06/20 09:00:45;;;;;;;6.80;2.25;;;;;;;16.65;100.00;99580.81;6283993;22;20473;-91
2023/06/20 09:03:11;;;;;;;5.93;2.05;;;;;;;16.64;100.00;99579.19;6283619;22;20001;-92
2023/06/20 09:05:45;;;;;;;6.15;2.00;;;;;;;16.84;100.00;99585.09;6179351;22;20050;-90
2023/06/20 09:08:15;;;;;;;5.43;2.42;;;;;;;16.99;100.00;99588.78;6284452;22;20100;-93
2023/06/20 09:10:41;;;;;;;6.03;2.22;;;;;;;17.19;100.00;99589.47;6284684;22;20339;-90
2023/06/20 09:13:08;;;;;;;5.10;1.88;;;;;;;17.51;100.00;99593.28;6180466;23;20036;-91
2023/06/20 09:15:34;;;;;;;3.45;1.50;;;;;;;17.63;100.00;99584.22;6284612;22;20331;-90
2023/06/20 09:18:01;;;;;;;4.72;1.85;;;;;;;17.74;100.00;99589.16;6180683;22;20012;-91
2023/06/20 09:20:28;;;;;;;3.50;1.80;;;;;;;17.86;100.00;99591.53;6284946;22;20378;-93
2023/06/20 09:22:54;;;;;;;5.05;2.05;;;;;;;18.28;100.00;99590.72;6284623;22;20009;-94
2023/06/20 09:25:22;;;;;;;5.63;1.98;;;;;;;18.08;100.00;99590.16;6181067;22;20033;-91
2023/06/20 09:27:48;;;;;;;5.30;1.70;;;;;;;18.07;100.00;99588.50;6284430;22;20012;-92
2023/06/20 09:30:14;;;;;;;6.00;2.50;;;;;;;18.01;100.00;99589.97;6283993;22;20001;-92
2023/06/20 09:32:41;;;;;;;4.07;1.80;;;;;;;18.06;100.00;99592.09;6284420;22;20339;-94
2023/06/20 09:35:09;;;;;;;5.38;1.98;;;;;;;18.23;100.00;99593.78;6284392;22;20005;-91
2023/06/20 09:37:40;;;;;;;5.80;2.25;;;;;;;18.43;97.91;99589.13;6180526;22;20079;-91
2023/06/20 09:40:10;;;;;;;5.20;2.40;;;;;;;18.50;100.00;99590.13;6284421;22;20009;-91
2023/06/20 09:42:41;;;;;;;4.65;2.00;;;;;;;18.66;97.40;99594.56;6284372;22;20059;-92
2023/06/20 09:45:08;;;;;;;3.60;1.90;;;;;;;19.37;95.85;99597.56;6284535;22;20017;-92
2023/06/20 09:47:36;;;;;;;5.57;1.98;;;;;;;20.00;91.31;99599.38;6180620;22;20079;-92
2023/06/20 09:50:07;;;;;;;5.10;2.05;;;;;;;20.78;88.57;99596.88;6284852;22;20009;-93
2023/06/20 09:52:43;;;;;;;2.90;1.40;;;;;;;21.36;86.28;99595.38;6284456;22;20051;-94
2023/06/20 09:55:14;;;;;;;6.10;2.10;;;;;;;20.93;82.53;99606.41;6284766;22;20092;-94
2023/06/20 09:57:51;;;;;;;3.08;1.52;;;;;;;21.18;81.63;99598.34;6180606;22;20050;-93
2023/06/20 10:00:17;;;;;;;3.83;1.50;;;;;;;21.04;82.57;99607.00;6180223;23;20350;-92
2023/06/20 10:02:45;;;;;;;3.63;1.67;;;;;;;20.86;83.53;99604.69;6284005;22;20008;-93
2023/06/20 10:05:16;;;;;;;6.18;1.70;;;;;;;22.40;79.53;99601.47;6284567;22;20013;-93
2023/06/20 10:07:43;;;;;;;1.58;1.05;;;;;;;22.68;75.31;99606.03;6284296;22;19997;-94
2023/06/20 10:10:10;;;;;;;2.25;1.40;;;;;;;23.33;74.38;99604.19;6179377;22;20005;-93
2023/06/20 10:12:37;;;;;;;2.83;1.02;;;;;;;23.50;69.53;99602.88;6284886;22;20009;-93
2023/06/20 10:15:04;;;;;;;1.88;1.10;;;;;;;23.34;68.40;99605.81;6284446;22;20335;-93
2023/06/20 10:17:31;;;;;;;3.35;1.13;;;;;;;23.80;67.52;99599.22;6181005;22;19993;-95
2023/06/20 10:19:58;;;;;;;2.60;1.20;;;;;;;24.27;64.00;99595.81;6285022;22;20344;-92
2023/06/20 10:22:37;;;;;;;1.98;1.05;;;;;;;24.34;63.23;99601.91;6286224;22;20058;-94
2023/06/20 10:25:14;;;;;;;1.70;1.10;;;;;;;24.02;63.61;99603.41;6284938;22;20009;-93
2023/06/20 10:27:58;;;;;;;3.80;1.02;;;;;;;24.87;61.63;99600.41;6285892;22;20015;-95
2023/06/20 10:30:53;;;;;;;2.75;1.00;;;;;;;24.59;61.97;99596.13;6284438;22;20037;-94
2023/06/20 10:33:25;;;;;;;1.85;0.93;;;;;;;24.68;62.59;99600.19;6284468;22;20032;-94
2023/06/20 10:35:56;;;;;;;1.85;0.82;;;;;;;24.59;62.79;99608.50;6284703;22;20009;-92
2023/06/20 10:38:21;;;;;;;4.00;0.90;;;;;;;24.22;61.02;99608.75;6284618;22;20012;-94
2023/06/20 10:40:46;;;;;;;3.10;1.52;;;;;;;24.06;61.71;99609.09;6180085;22;20428;-94
2023/06/20 10:43:17;;;;;;;2.03;0.75;;;;;;;23.83;62.07;99609.41;6180549;23;20008;-93
2023/06/20 10:45:57;;;;;;;3.33;1.27;;;;;;;23.52;63.09;99612.41;6284162;22;20036;-94
2023/06/20 10:48:29;;;;;;;1.85;1.00;;;;;;;23.29;65.89;99618.75;6283054;22;20058;-94
2023/06/20 10:51:00;;;;;;;3.42;0.88;;;;;;;23.28;63.24;99612.66;6180499;22;20057;-91
2023/06/20 10:53:27;;;;;;;3.20;0.70;;;;;;;22.90;66.90;99619.16;6180712;23;20008;-94
2023/06/20 10:55:53;;;;;;;6.25;1.23;;;;;;;22.62;63.45;99626.00;6283766;22;20002;-94
2023/06/20 10:58:18;;;;;;;2.15;0.73;;;;;;;22.35;66.75;99622.25;6283927;22;20012;-91
2023/06/20 11:00:44;;;;;;;2.35;1.00;;;;;;;22.54;68.05;99618.22;6180234;23;20001;-92
2023/06/20 11:03:10;;;;;;;2.00;0.80;;;;;;;23.04;66.90;99626.22;6180047;23;20005;-94
2023/06/20 11:05:36;;;;;;;1.30;1.02;;;;;;;24.08;64.62;99617.63;6180610;23;20009;-92
2023/06/20 11:08:09;;;;;;;1.45;1.00;;;;;;;24.77;59.27;99621.91;6180477;22;20035;-93
2023/06/20 11:10:37;;;;;;;4.80;1.20;;;;;;;24.64;60.58;99627.19;6180796;22;20001;-93
2023/06/20 11:13:06;;;;;;;4.05;1.17;;;;;;;24.75;60.47;99629.22;6284205;22;20398;-93
2023/06/20 11:15:34;;;;;;;2.13;1.23;;;;;;;24.26;59.92;99631.09;6180465;22;20001;-93
2023/06/20 11:18:10;;;;;;;4.63;1.20;;;;;;;23.71;61.42;99645.97;6283459;22;20005;-91
2023/06/20 11:20:40;;;;;;;2.70;1.05;;;;;;;23.66;63.44;99637.84;6283323;22;20016;-91
2023/06/20 11:23:07;;;;;;;3.58;1.45;;;;;;;24.11;57.82;99639.13;6180972;22;20497;-94
2023/06/20 11:25:35;;;;;;;1.52;0.68;;;;;;;23.30;56.79;99636.16;6284385;22;20009;-96
2023/06/20 11:28:09;;;;;;;1.27;0.70;;;;;;;23.66;59.82;99641.28;6180623;22;20436;-92